sensor_id;sensor_type;location;lat;lon;timestamp;pressure;altitude;pressure_sealevel;temperature;humidity
68476;BME280;55464;48.266;14.188;2023-04-06T00:00:09;98096.97;;;3.54;52.91
68476;BME280;55464;48.266;14.188;2023-04-06T00:02:35;98086.97;;;3.49;52.89
68476;BME280;55464;48.266;14.188;2023-04-06T00:05:00;98085.38;;;3.43;52.72
68476;BME280;55464;48.266;14.188;2023-04-06T00:07:26;98091.91;;;3.47;52.78
68476;BME280;55464;48.266;14.188;2023-04-06T00:09:53;98087.50;;;3.51;53.42
68476;BME280;55464;48.266;14.188;2023-04-06T00:12:18;98094.84;;;3.51;53.61
68476;BME280;55464;48.266;14.188;2023-04-06T00:14:44;98084.25;;;3.49;52.80
68476;BME280;55464;48.266;14.188;2023-04-06T00:17:10;98079.38;;;3.46;52.24
68476;BME280;55464;48.266;14.188;2023-04-06T00:19:35;98081.81;;;3.48;51.60
68476;BME280;55464;48.266;14.188;2023-04-06T00:22:01;98078.56;;;3.46;51.69
68476;BME280;55464;48.266;14.188;2023-04-06T00:24:27;98072.06;;;3.41;52.32
68476;BME280;55464;48.266;14.188;2023-04-06T00:26:52;98070.75;;;3.39;52.50
68476;BME280;55464;48.266;14.188;2023-04-06T00:29:19;98072.88;;;3.42;53.00
68476;BME280;55464;48.266;14.188;2023-04-06T00:31:44;98074.22;;;3.45;53.14
68476;BME280;55464;48.266;14.188;2023-04-06T00:34:10;98064.09;;;3.45;53.17
68476;BME280;55464;48.266;14.188;2023-04-06T00:36:35;98064.94;;;3.46;53.24
68476;BME280;55464;48.266;14.188;2023-04-06T00:39:01;98058.53;;;3.31;53.65
68476;BME280;55464;48.266;14.188;2023-04-06T00:41:26;98056.19;;;3.25;53.03
68476;BME280;55464;48.266;14.188;2023-04-06T00:43:53;98063.81;;;3.22;52.66
68476;BME280;55464;48.266;14.188;2023-04-06T00:46:19;98060.81;;;3.24;52.25
68476;BME280;55464;48.266;14.188;2023-04-06T00:48:44;98056.44;;;3.28;52.66
68476;BME280;55464;48.266;14.188;2023-04-06T00:51:10;98052.28;;;3.31;53.32
68476;BME280;55464;48.266;14.188;2023-04-06T00:53:35;98055.31;;;3.29;52.95
68476;BME280;55464;48.266;14.188;2023-04-06T00:56:01;98050.97;;;3.28;53.04
68476;BME280;55464;48.266;14.188;2023-04-06T00:58:26;98046.63;;;3.27;52.44
68476;BME280;55464;48.266;14.188;2023-04-06T01:00:51;98053.41;;;3.30;51.60
68476;BME280;55464;48.266;14.188;2023-04-06T01:03:17;98052.53;;;3.34;50.69
68476;BME280;55464;48.266;14.188;2023-04-06T01:05:42;98051.44;;;3.35;50.67
68476;BME280;55464;48.266;14.188;2023-04-06T01:08:09;98044.63;;;3.33;50.71
68476;BME280;55464;48.266;14.188;2023-04-06T01:10:34;98047.41;;;3.28;50.57
68476;BME280;55464;48.266;14.188;2023-04-06T01:13:00;98050.16;;;3.28;50.61
68476;BME280;55464;48.266;14.188;2023-04-06T01:15:26;98045.53;;;3.28;50.48
68476;BME280;55464;48.266;14.188;2023-04-06T01:17:53;98049.84;;;3.29;50.19
68476;BME280;55464;48.266;14.188;2023-04-06T01:20:19;98043.31;;;3.30;50.54
68476;BME280;55464;48.266;14.188;2023-04-06T01:22:44;98038.44;;;3.27;50.64
68476;BME280;55464;48.266;14.188;2023-04-06T01:25:10;98045.53;;;3.28;50.34
68476;BME280;55464;48.266;14.188;2023-04-06T01:27:36;98044.69;;;3.28;50.72
68476;BME280;55464;48.266;14.188;2023-04-06T01:30:01;98052.34;;;3.26;50.91
68476;BME280;55464;48.266;14.188;2023-04-06T01:32:27;98043.94;;;3.22;51.27
68476;BME280;55464;48.266;14.188;2023-04-06T01:34:52;98046.16;;;3.20;51.68
68476;BME280;55464;48.266;14.188;2023-04-06T01:37:18;98038.56;;;3.17;52.33
68476;BME280;55464;48.266;14.188;2023-04-06T01:39:44;98051.94;;;3.13;52.65
68476;BME280;55464;48.266;14.188;2023-04-06T01:42:10;98046.28;;;3.10;52.42
68476;BME280;55464;48.266;14.188;2023-04-06T01:44:36;98037.88;;;3.06;52.58
68476;BME280;55464;48.266;14.188;2023-04-06T01:47:02;98041.72;;;3.05;52.57
68476;BME280;55464;48.266;14.188;2023-04-06T01:49:28;98050.97;;;3.04;52.88
68476;BME280;55464;48.266;14.188;2023-04-06T01:51:53;98046.09;;;3.01;53.09
68476;BME280;55464;48.266;14.188;2023-04-06T01:54:19;98052.41;;;2.96;53.14
68476;BME280;55464;48.266;14.188;2023-04-06T01:56:45;98051.88;;;2.94;53.99
68476;BME280;55464;48.266;14.188;2023-04-06T01:59:10;98048.13;;;2.90;53.57
68476;BME280;55464;48.266;14.188;2023-04-06T02:01:36;98050.31;;;2.88;53.80
68476;BME280;55464;48.266;14.188;2023-04-06T02:04:01;98047.34;;;2.84;53.91
68476;BME280;55464;48.266;14.188;2023-04-06T02:06:27;98044.06;;;2.88;53.83
68476;BME280;55464;48.266;14.188;2023-04-06T02:08:52;98042.72;;;2.85;54.23
68476;BME280;55464;48.266;14.188;2023-04-06T02:11:18;98045.28;;;2.71;54.14
68476;BME280;55464;48.266;14.188;2023-04-06T02:13:43;98032.63;;;2.61;54.62
68476;BME280;55464;48.266;14.188;2023-04-06T02:16:09;98042.34;;;2.68;54.25
68476;BME280;55464;48.266;14.188;2023-04-06T02:18:34;98045.53;;;2.75;54.22
68476;BME280;55464;48.266;14.188;2023-04-06T02:21:00;98041.72;;;2.76;54.04
68476;BME280;55464;48.266;14.188;2023-04-06T02:23:25;98042.75;;;2.80;53.98
68476;BME280;55464;48.266;14.188;2023-04-06T02:25:52;98043.84;;;2.84;54.08
68476;BME280;55464;48.266;14.188;2023-04-06T02:28:17;98041.03;;;2.89;53.98
68476;BME280;55464;48.266;14.188;2023-04-06T02:30:42;98043.84;;;2.84;53.75
68476;BME280;55464;48.266;14.188;2023-04-06T02:33:08;98044.31;;;2.91;53.30
68476;BME280;55464;48.266;14.188;2023-04-06T02:35:33;98038.53;;;2.93;53.11
68476;BME280;55464;48.266;14.188;2023-04-06T02:37:59;98042.91;;;2.94;52.57
68476;BME280;55464;48.266;14.188;2023-04-06T02:40:24;98044.31;;;2.91;52.98
68476;BME280;55464;48.266;14.188;2023-04-06T02:42:50;98035.66;;;2.84;53.53
68476;BME280;55464;48.266;14.188;2023-04-06T02:45:16;98031.25;;;2.88;52.45
68476;BME280;55464;48.266;14.188;2023-04-06T02:47:41;98034.56;;;2.85;52.16
68476;BME280;55464;48.266;14.188;2023-04-06T02:50:07;98031.81;;;2.85;51.91
68476;BME280;55464;48.266;14.188;2023-04-06T02:52:33;98042.44;;;2.87;51.89
68476;BME280;55464;48.266;14.188;2023-04-06T02:54:58;98031.81;;;2.85;52.06
68476;BME280;55464;48.266;14.188;2023-04-06T02:57:23;98039.47;;;2.83;52.44
68476;BME280;55464;48.266;14.188;2023-04-06T02:59:49;98030.50;;;2.82;52.08
68476;BME280;55464;48.266;14.188;2023-04-06T03:02:14;98037.28;;;2.85;51.41
68476;BME280;55464;48.266;14.188;2023-04-06T03:04:40;98042.47;;;2.81;52.53
68476;BME280;55464;48.266;14.188;2023-04-06T03:07:05;98038.75;;;2.72;53.19
68476;BME280;55464;48.266;14.188;2023-04-06T03:09:31;98044.25;;;2.67;52.80
68476;BME280;55464;48.266;14.188;2023-04-06T03:11:56;98040.97;;;2.70;52.13
68476;BME280;55464;48.266;14.188;2023-04-06T03:14:22;98036.59;;;2.69;52.30
68476;BME280;55464;48.266;14.188;2023-04-06T03:16:48;98037.94;;;2.72;53.65
68476;BME280;55464;48.266;14.188;2023-04-06T03:19:14;98048.59;;;2.68;54.07
68476;BME280;55464;48.266;14.188;2023-04-06T03:21:40;98046.25;;;2.56;53.77
68476;BME280;55464;48.266;14.188;2023-04-06T03:24:06;98050.13;;;2.50;53.72
68476;BME280;55464;48.266;14.188;2023-04-06T03:26:32;98037.69;;;2.39;54.41
68476;BME280;55464;48.266;14.188;2023-04-06T03:28:58;98042.28;;;2.43;54.72
68476;BME280;55464;48.266;14.188;2023-04-06T03:31:23;98051.53;;;2.42;54.69
68476;BME280;55464;48.266;14.188;2023-04-06T03:33:49;98050.72;;;2.42;54.41
68476;BME280;55464;48.266;14.188;2023-04-06T03:36:14;98051.34;;;2.34;54.31
68476;BME280;55464;48.266;14.188;2023-04-06T03:38:40;98054.09;;;2.29;55.21
68476;BME280;55464;48.266;14.188;2023-04-06T03:41:05;98046.25;;;2.22;55.58
68476;BME280;55464;48.266;14.188;2023-04-06T03:43:31;98052.03;;;2.10;55.21
68476;BME280;55464;48.266;14.188;2023-04-06T03:45:56;98051.84;;;2.01;54.96
68476;BME280;55464;48.266;14.188;2023-04-06T03:48:22;98054.56;;;2.01;55.01
68476;BME280;55464;48.266;14.188;2023-04-06T03:50:47;98067.59;;;2.04;55.28
68476;BME280;55464;48.266;14.188;2023-04-06T03:53:12;98069.22;;;2.05;55.26
68476;BME280;55464;48.266;14.188;2023-04-06T03:55:38;98069.47;;;2.09;54.85
68476;BME280;55464;48.266;14.188;2023-04-06T03:58:03;98071.09;;;2.05;54.69
68476;BME280;55464;48.266;14.188;2023-04-06T04:00:29;98068.13;;;2.06;55.28
68476;BME280;55464;48.266;14.188;2023-04-06T04:02:55;98077.09;;;2.07;55.94
68476;BME280;55464;48.266;14.188;2023-04-06T04:05:20;98078.19;;;2.06;56.69
68476;BME280;55464;48.266;14.188;2023-04-06T04:07:50;98071.94;;;2.05;56.90
68476;BME280;55464;48.266;14.188;2023-04-06T04:10:15;98078.47;;;2.04;57.38
68476;BME280;55464;48.266;14.188;2023-04-06T04:12:41;98073.31;;;2.03;57.19
68476;BME280;55464;48.266;14.188;2023-04-06T04:15:07;98079.03;;;2.01;57.73
68476;BME280;55464;48.266;14.188;2023-04-06T04:17:32;98072.78;;;2.01;57.44
68476;BME280;55464;48.266;14.188;2023-04-06T04:19:58;98072.53;;;1.97;57.82
68476;BME280;55464;48.266;14.188;2023-04-06T04:22:23;98075.78;;;1.99;57.28
68476;BME280;55464;48.266;14.188;2023-04-06T04:24:48;98076.06;;;1.98;57.45
68476;BME280;55464;48.266;14.188;2023-04-06T04:27:14;98075.00;;;1.94;57.69
68476;BME280;55464;48.266;14.188;2023-04-06T04:29:39;98079.91;;;1.92;57.88
68476;BME280;55464;48.266;14.188;2023-04-06T04:32:05;98072.88;;;1.85;58.34
68476;BME280;55464;48.266;14.188;2023-04-06T04:34:30;98084.56;;;1.86;58.48
68476;BME280;55464;48.266;14.188;2023-04-06T04:36:56;98084.84;;;1.84;58.48
68476;BME280;55464;48.266;14.188;2023-04-06T04:39:22;98086.19;;;1.82;58.82
68476;BME280;55464;48.266;14.188;2023-04-06T04:41:47;98101.16;;;1.84;58.66
68476;BME280;55464;48.266;14.188;2023-04-06T04:44:13;98088.66;;;1.78;58.33
68476;BME280;55464;48.266;14.188;2023-04-06T04:46:38;98093.28;;;1.78;58.58
68476;BME280;55464;48.266;14.188;2023-04-06T04:49:04;98096.31;;;1.71;58.62
68476;BME280;55464;48.266;14.188;2023-04-06T04:51:29;98096.88;;;1.68;58.81
68476;BME280;55464;48.266;14.188;2023-04-06T04:53:56;98101.50;;;1.62;58.97
68476;BME280;55464;48.266;14.188;2023-04-06T04:56:21;98103.97;;;1.59;59.14
68476;BME280;55464;48.266;14.188;2023-04-06T04:58:48;98105.63;;;1.55;59.73
68476;BME280;55464;48.266;14.188;2023-04-06T05:01:13;98109.69;;;1.52;59.54
68476;BME280;55464;48.266;14.188;2023-04-06T05:03:39;98109.44;;;1.54;59.43
68476;BME280;55464;48.266;14.188;2023-04-06T05:06:05;98112.94;;;1.54;59.38
68476;BME280;55464;48.266;14.188;2023-04-06T05:08:31;98111.09;;;1.49;59.96
68476;BME280;55464;48.266;14.188;2023-04-06T05:10:56;98109.44;;;1.48;60.29
68476;BME280;55464;48.266;14.188;2023-04-06T05:13:22;98116.25;;;1.51;60.46
68476;BME280;55464;48.266;14.188;2023-04-06T05:15:47;98111.06;;;1.55;60.37
68476;BME280;55464;48.266;14.188;2023-04-06T05:18:13;98123.25;;;1.57;60.33
68476;BME280;55464;48.266;14.188;2023-04-06T05:20:39;98126.25;;;1.61;60.54
68476;BME280;55464;48.266;14.188;2023-04-06T05:23:04;98114.56;;;1.65;59.96
68476;BME280;55464;48.266;14.188;2023-04-06T05:25:30;98126.72;;;1.73;59.81
68476;BME280;55464;48.266;14.188;2023-04-06T05:27:55;98120.19;;;1.79;59.77
68476;BME280;55464;48.266;14.188;2023-04-06T05:30:21;98125.03;;;1.87;59.50
68476;BME280;55464;48.266;14.188;2023-04-06T05:32:47;98117.97;;;1.92;59.53
68476;BME280;55464;48.266;14.188;2023-04-06T05:35:12;98118.50;;;1.94;59.34
68476;BME280;55464;48.266;14.188;2023-04-06T05:37:38;98120.06;;;2.00;59.52
68476;BME280;55464;48.266;14.188;2023-04-06T05:40:05;98127.94;;;2.01;59.84
68476;BME280;55464;48.266;14.188;2023-04-06T05:42:40;98126.06;;;2.02;60.11
68476;BME280;55464;48.266;14.188;2023-04-06T05:45:06;98128.22;;;2.00;59.73
68476;BME280;55464;48.266;14.188;2023-04-06T05:47:32;98136.69;;;1.98;60.18
68476;BME280;55464;48.266;14.188;2023-04-06T05:49:59;98132.59;;;2.01;60.48
68476;BME280;55464;48.266;14.188;2023-04-06T05:52:24;98128.78;;;2.02;61.33
68476;BME280;55464;48.266;14.188;2023-04-06T05:54:50;98128.50;;;2.03;61.96
68476;BME280;55464;48.266;14.188;2023-04-06T05:57:15;98130.13;;;2.04;61.98
68476;BME280;55464;48.266;14.188;2023-04-06T05:59:42;98139.88;;;2.11;62.02
68476;BME280;55464;48.266;14.188;2023-04-06T06:02:07;98134.69;;;2.14;62.09
68476;BME280;55464;48.266;14.188;2023-04-06T06:04:33;98145.84;;;2.18;61.06
68476;BME280;55464;48.266;14.188;2023-04-06T06:06:58;98149.06;;;2.20;60.68
68476;BME280;55464;48.266;14.188;2023-04-06T06:09:23;98144.44;;;2.20;60.38
68476;BME280;55464;48.266;14.188;2023-04-06T06:11:49;98148.78;;;2.21;61.76
68476;BME280;55464;48.266;14.188;2023-04-06T06:14:15;98147.16;;;2.20;61.98
68476;BME280;55464;48.266;14.188;2023-04-06T06:16:41;98145.22;;;2.26;62.94
68476;BME280;55464;48.266;14.188;2023-04-06T06:19:07;98140.34;;;2.28;62.55
68476;BME280;55464;48.266;14.188;2023-04-06T06:21:32;98140.84;;;2.30;62.58
68476;BME280;55464;48.266;14.188;2023-04-06T06:23:58;98142.75;;;2.30;62.33
68476;BME280;55464;48.266;14.188;2023-04-06T06:26:23;98138.69;;;2.27;62.58
68476;BME280;55464;48.266;14.188;2023-04-06T06:28:48;98143.34;;;2.26;62.67
68476;BME280;55464;48.266;14.188;2023-04-06T06:31:14;98145.19;;;2.31;63.25
68476;BME280;55464;48.266;14.188;2023-04-06T06:33:39;98154.72;;;2.34;62.64
68476;BME280;55464;48.266;14.188;2023-04-06T06:36:05;98141.38;;;2.32;63.07
68476;BME280;55464;48.266;14.188;2023-04-06T06:38:31;98148.16;;;2.35;63.35
68476;BME280;55464;48.266;14.188;2023-04-06T06:40:56;98141.94;;;2.29;62.97
68476;BME280;55464;48.266;14.188;2023-04-06T06:43:21;98139.50;;;2.27;63.34
68476;BME280;55464;48.266;14.188;2023-04-06T06:45:47;98145.78;;;2.28;63.59
68476;BME280;55464;48.266;14.188;2023-04-06T06:48:13;98141.44;;;2.22;63.49
68476;BME280;55464;48.266;14.188;2023-04-06T06:50:38;98143.34;;;2.21;63.12
68476;BME280;55464;48.266;14.188;2023-04-06T06:53:03;98137.91;;;2.21;62.12
68476;BME280;55464;48.266;14.188;2023-04-06T06:55:29;98147.97;;;2.21;62.08
68476;BME280;55464;48.266;14.188;2023-04-06T06:57:55;98154.22;;;2.21;61.51
68476;BME280;55464;48.266;14.188;2023-04-06T07:00:20;98150.16;;;2.19;61.54
68476;BME280;55464;48.266;14.188;2023-04-06T07:02:49;98153.13;;;2.22;60.75
68476;BME280;55464;48.266;14.188;2023-04-06T07:05:15;98147.13;;;2.25;60.39
68476;BME280;55464;48.266;14.188;2023-04-06T07:07:41;98153.63;;;2.30;60.22
68476;BME280;55464;48.266;14.188;2023-04-06T07:10:07;98162.88;;;2.34;59.05
68476;BME280;55464;48.266;14.188;2023-04-06T07:12:33;98150.34;;;2.33;58.36
68476;BME280;55464;48.266;14.188;2023-04-06T07:14:58;98154.69;;;2.39;59.35
68476;BME280;55464;48.266;14.188;2023-04-06T07:17:24;98161.69;;;2.45;59.80
68476;BME280;55464;48.266;14.188;2023-04-06T07:19:49;98169.81;;;2.50;60.49
68476;BME280;55464;48.266;14.188;2023-04-06T07:22:15;98167.63;;;2.52;60.03
68476;BME280;55464;48.266;14.188;2023-04-06T07:24:40;98171.47;;;2.51;60.92
68476;BME280;55464;48.266;14.188;2023-04-06T07:27:05;98181.19;;;2.57;60.87
68476;BME280;55464;48.266;14.188;2023-04-06T07:29:31;98171.97;;;2.58;60.55
68476;BME280;55464;48.266;14.188;2023-04-06T07:31:56;98174.41;;;2.60;61.57
68476;BME280;55464;48.266;14.188;2023-04-06T07:34:22;98172.69;;;2.69;61.54
68476;BME280;55464;48.266;14.188;2023-04-06T07:36:48;98175.41;;;2.69;61.19
68476;BME280;55464;48.266;14.188;2023-04-06T07:39:13;98183.22;;;2.81;61.99
68476;BME280;55464;48.266;14.188;2023-04-06T07:41:39;98176.94;;;2.80;61.57
68476;BME280;55464;48.266;14.188;2023-04-06T07:44:05;98172.88;;;2.83;61.09
68476;BME280;55464;48.266;14.188;2023-04-06T07:46:30;98169.06;;;2.84;61.59
68476;BME280;55464;48.266;14.188;2023-04-06T07:48:57;98172.53;;;2.90;61.68
68476;BME280;55464;48.266;14.188;2023-04-06T07:51:23;98165.94;;;2.96;61.84
68476;BME280;55464;48.266;14.188;2023-04-06T07:53:50;98162.94;;;2.97;61.60
68476;BME280;55464;48.266;14.188;2023-04-06T07:56:15;98168.34;;;3.02;61.71
68476;BME280;55464;48.266;14.188;2023-04-06T07:58:41;98172.09;;;3.07;61.05
68476;BME280;55464;48.266;14.188;2023-04-06T08:01:06;98166.63;;;3.12;61.24
68476;BME280;55464;48.266;14.188;2023-04-06T08:03:34;98172.91;;;3.12;61.49
68476;BME280;55464;48.266;14.188;2023-04-06T08:05:59;98170.94;;;3.18;62.01
68476;BME280;55464;48.266;14.188;2023-04-06T08:08:25;98170.13;;;3.17;61.92
68476;BME280;55464;48.266;14.188;2023-04-06T08:10:50;98170.88;;;3.23;61.70
68476;BME280;55464;48.266;14.188;2023-04-06T08:13:16;98161.03;;;3.27;60.78
68476;BME280;55464;48.266;14.188;2023-04-06T08:15:41;98158.53;;;3.31;61.08
68476;BME280;55464;48.266;14.188;2023-04-06T08:18:08;98161.50;;;3.34;60.57
68476;BME280;55464;48.266;14.188;2023-04-06T08:20:33;98154.16;;;3.35;60.32
68476;BME280;55464;48.266;14.188;2023-04-06T08:22:59;98162.56;;;3.38;60.57
68476;BME280;55464;48.266;14.188;2023-04-06T08:25:25;98154.63;;;3.42;60.86
68476;BME280;55464;48.266;14.188;2023-04-06T08:27:50;98154.81;;;3.51;60.46
68476;BME280;55464;48.266;14.188;2023-04-06T08:30:16;98157.81;;;3.49;60.71
68476;BME280;55464;48.266;14.188;2023-04-06T08:32:41;98161.53;;;3.58;59.76
68476;BME280;55464;48.266;14.188;2023-04-06T08:35:08;98154.16;;;3.59;59.93
68476;BME280;55464;48.266;14.188;2023-04-06T08:37:34;98166.13;;;3.63;59.49
68476;BME280;55464;48.266;14.188;2023-04-06T08:39:59;98157.06;;;3.68;58.98
68476;BME280;55464;48.266;14.188;2023-04-06T08:42:25;98152.13;;;3.70;58.96
68476;BME280;55464;48.266;14.188;2023-04-06T08:44:52;98151.25;;;3.74;58.98
68476;BME280;55464;48.266;14.188;2023-04-06T08:47:18;98153.13;;;3.79;58.81
68476;BME280;55464;48.266;14.188;2023-04-06T08:49:45;98151.94;;;3.85;58.27
68476;BME280;55464;48.266;14.188;2023-04-06T08:52:11;98151.59;;;3.92;58.38
68476;BME280;55464;48.266;14.188;2023-04-06T08:54:38;98137.38;;;3.95;58.00
68476;BME280;55464;48.266;14.188;2023-04-06T08:57:05;98148.75;;;4.02;57.93
68476;BME280;55464;48.266;14.188;2023-04-06T08:59:31;98150.28;;;4.08;57.29
68476;BME280;55464;48.266;14.188;2023-04-06T09:01:56;98152.16;;;4.13;57.81
68476;BME280;55464;48.266;14.188;2023-04-06T09:04:22;98154.53;;;4.20;58.58
68476;BME280;55464;48.266;14.188;2023-04-06T09:06:48;98157.19;;;4.25;57.67
68476;BME280;55464;48.266;14.188;2023-04-06T09:09:15;98147.59;;;4.27;57.33
68476;BME280;55464;48.266;14.188;2023-04-06T09:11:48;98143.19;;;4.31;57.24
68476;BME280;55464;48.266;14.188;2023-04-06T09:14:15;98149.66;;;4.35;55.90
68476;BME280;55464;48.266;14.188;2023-04-06T09:16:42;98131.88;;;4.38;55.79
68476;BME280;55464;48.266;14.188;2023-04-06T09:19:08;98137.88;;;4.40;53.99
68476;BME280;55464;48.266;14.188;2023-04-06T09:21:34;98133.13;;;4.46;53.92
68476;BME280;55464;48.266;14.188;2023-04-06T09:24:02;98131.78;;;4.43;53.47
68476;BME280;55464;48.266;14.188;2023-04-06T09:26:28;98127.59;;;4.51;54.44
68476;BME280;55464;48.266;14.188;2023-04-06T09:28:54;98134.59;;;4.57;54.91
68476;BME280;55464;48.266;14.188;2023-04-06T09:31:31;98111.66;;;4.58;54.77
68476;BME280;55464;48.266;14.188;2023-04-06T09:33:59;98125.38;;;4.72;54.83
68476;BME280;55464;48.266;14.188;2023-04-06T09:36:35;98123.66;;;4.76;55.34
68476;BME280;55464;48.266;14.188;2023-04-06T09:39:04;98114.66;;;4.76;55.72
68476;BME280;55464;48.266;14.188;2023-04-06T09:41:34;98110.44;;;4.83;54.03
68476;BME280;55464;48.266;14.188;2023-04-06T09:44:11;98099.59;;;4.78;54.29
68476;BME280;55464;48.266;14.188;2023-04-06T09:46:41;98103.78;;;4.89;54.04
68476;BME280;55464;48.266;14.188;2023-04-06T09:49:08;98110.97;;;4.99;54.69
68476;BME280;55464;48.266;14.188;2023-04-06T09:54:07;98116.75;;;5.11;52.88
68476;BME280;55464;48.266;14.188;2023-04-06T09:56:45;98099.78;;;5.15;50.69
68476;BME280;55464;48.266;14.188;2023-04-06T09:59:40;98097.53;;;5.17;50.84
68476;BME280;55464;48.266;14.188;2023-04-06T10:02:18;98105.66;;;5.22;49.92
68476;BME280;55464;48.266;14.188;2023-04-06T10:04:56;98094.72;;;5.22;49.50
68476;BME280;55464;48.266;14.188;2023-04-06T10:07:25;98101.09;;;5.31;50.49
68476;BME280;55464;48.266;14.188;2023-04-06T10:09:53;98102.75;;;5.32;50.05
68476;BME280;55464;48.266;14.188;2023-04-06T10:12:20;98097.97;;;5.38;50.20
68476;BME280;55464;48.266;14.188;2023-04-06T10:14:45;98100.22;;;5.49;49.22
68476;BME280;55464;48.266;14.188;2023-04-06T10:17:11;98099.41;;;5.49;47.34
68476;BME280;55464;48.266;14.188;2023-04-06T10:19:44;98091.41;;;5.53;48.34
68476;BME280;55464;48.266;14.188;2023-04-06T10:22:18;98097.69;;;5.53;48.78
68476;BME280;55464;48.266;14.188;2023-04-06T10:24:46;98096.47;;;5.59;48.75
68476;BME280;55464;48.266;14.188;2023-04-06T10:27:11;98084.31;;;5.65;50.60
68476;BME280;55464;48.266;14.188;2023-04-06T10:29:47;98081.38;;;5.76;49.87
68476;BME280;55464;48.266;14.188;2023-04-06T10:32:14;98077.59;;;5.85;46.14
68476;BME280;55464;48.266;14.188;2023-04-06T10:34:39;98077.28;;;5.87;46.07
68476;BME280;55464;48.266;14.188;2023-04-06T10:37:13;98067.69;;;5.90;46.62
68476;BME280;55464;48.266;14.188;2023-04-06T10:39:52;98063.31;;;5.88;44.67
68476;BME280;55464;48.266;14.188;2023-04-06T10:42:24;98065.63;;;5.95;45.67
68476;BME280;55464;48.266;14.188;2023-04-06T10:44:50;98059.09;;;5.96;45.53
68476;BME280;55464;48.266;14.188;2023-04-06T10:47:17;98049.81;;;5.92;45.94
68476;BME280;55464;48.266;14.188;2023-04-06T10:49:45;98041.84;;;5.96;45.57
68476;BME280;55464;48.266;14.188;2023-04-06T10:52:11;98056.44;;;6.05;46.16
68476;BME280;55464;48.266;14.188;2023-04-06T10:54:41;98057.50;;;6.18;44.49
68476;BME280;55464;48.266;14.188;2023-04-06T10:57:10;98047.34;;;6.18;44.66
68476;BME280;55464;48.266;14.188;2023-04-06T10:59:35;98053.84;;;6.22;44.66
68476;BME280;55464;48.266;14.188;2023-04-06T11:02:01;98047.72;;;6.25;42.65
68476;BME280;55464;48.266;14.188;2023-04-06T11:04:26;98046.81;;;6.30;43.35
68476;BME280;55464;48.266;14.188;2023-04-06T11:06:52;98051.78;;;6.28;43.31
68476;BME280;55464;48.266;14.188;2023-04-06T11:09:27;98033.94;;;6.31;44.23
68476;BME280;55464;48.266;14.188;2023-04-06T11:11:53;98019.06;;;6.23;45.24
68476;BME280;55464;48.266;14.188;2023-04-06T11:14:19;98032.88;;;6.40;45.01
68476;BME280;55464;48.266;14.188;2023-04-06T11:16:46;98034.38;;;6.47;44.94
68476;BME280;55464;48.266;14.188;2023-04-06T11:19:14;98031.63;;;6.47;44.57
68476;BME280;55464;48.266;14.188;2023-04-06T11:21:41;98027.97;;;6.51;47.12
68476;BME280;55464;48.266;14.188;2023-04-06T11:24:18;98022.72;;;6.63;46.89
68476;BME280;55464;48.266;14.188;2023-04-06T11:26:46;98021.97;;;6.72;44.79
68476;BME280;55464;48.266;14.188;2023-04-06T11:29:16;98015.06;;;6.74;45.28
68476;BME280;55464;48.266;14.188;2023-04-06T11:31:45;98011.38;;;6.79;45.49
68476;BME280;55464;48.266;14.188;2023-04-06T11:34:12;98010.75;;;6.82;44.25
68476;BME280;55464;48.266;14.188;2023-04-06T11:36:40;98006.44;;;6.90;45.77
68476;BME280;55464;48.266;14.188;2023-04-06T11:39:06;98000.50;;;6.96;45.62
68476;BME280;55464;48.266;14.188;2023-04-06T11:41:32;97999.41;;;7.06;46.21
68476;BME280;55464;48.266;14.188;2023-04-06T11:44:00;97990.25;;;7.11;46.67
68476;BME280;55464;48.266;14.188;2023-04-06T11:46:26;97994.97;;;7.19;46.57
68476;BME280;55464;48.266;14.188;2023-04-06T11:48:52;97982.88;;;7.29;46.00
68476;BME280;55464;48.266;14.188;2023-04-06T11:51:22;97994.38;;;7.39;45.36
68476;BME280;55464;48.266;14.188;2023-04-06T11:53:48;97995.69;;;7.42;45.12
68476;BME280;55464;48.266;14.188;2023-04-06T11:56:30;97992.78;;;7.47;44.77
68476;BME280;55464;48.266;14.188;2023-04-06T11:58:57;97979.88;;;7.48;43.64
68476;BME280;55464;48.266;14.188;2023-04-06T12:01:23;97973.91;;;7.46;43.30
68476;BME280;55464;48.266;14.188;2023-04-06T12:03:50;97985.22;;;7.62;42.69
68476;BME280;55464;48.266;14.188;2023-04-06T12:06:16;97971.81;;;7.60;46.29
68476;BME280;55464;48.266;14.188;2023-04-06T12:08:41;97977.81;;;7.71;48.65
68476;BME280;55464;48.266;14.188;2023-04-06T12:11:07;97969.09;;;7.78;46.55
68476;BME280;55464;48.266;14.188;2023-04-06T12:13:32;97964.59;;;7.90;50.59
68476;BME280;55464;48.266;14.188;2023-04-06T12:15:58;97960.09;;;8.03;49.04
68476;BME280;55464;48.266;14.188;2023-04-06T12:18:23;97965.09;;;8.10;46.00
68476;BME280;55464;48.266;14.188;2023-04-06T12:20:49;97963.47;;;8.18;49.02
68476;BME280;55464;48.266;14.188;2023-04-06T12:23:14;97968.31;;;8.29;48.36
68476;BME280;55464;48.266;14.188;2023-04-06T12:25:40;97957.31;;;8.29;46.06
68476;BME280;55464;48.266;14.188;2023-04-06T12:28:06;97956.78;;;8.54;47.05
68476;BME280;55464;48.266;14.188;2023-04-06T12:30:32;97945.81;;;8.54;45.75
68476;BME280;55464;48.266;14.188;2023-04-06T12:32:57;97954.72;;;8.59;47.08
68476;BME280;55464;48.266;14.188;2023-04-06T12:35:23;97953.84;;;8.67;45.92
68476;BME280;55464;48.266;14.188;2023-04-06T12:37:48;97942.50;;;8.78;43.94
68476;BME280;55464;48.266;14.188;2023-04-06T12:40:14;97946.25;;;8.82;43.78
68476;BME280;55464;48.266;14.188;2023-04-06T12:42:40;97939.88;;;8.90;42.59
68476;BME280;55464;48.266;14.188;2023-04-06T12:45:08;97952.59;;;9.03;42.22
68476;BME280;55464;48.266;14.188;2023-04-06T12:47:34;97941.44;;;9.08;41.04
68476;BME280;55464;48.266;14.188;2023-04-06T12:50:02;97945.63;;;9.06;40.75
68476;BME280;55464;48.266;14.188;2023-04-06T12:52:27;97934.31;;;9.07;42.55
68476;BME280;55464;48.266;14.188;2023-04-06T12:54:55;97936.69;;;9.18;40.55
68476;BME280;55464;48.266;14.188;2023-04-06T12:57:21;97934.72;;;9.18;40.69